Terminal Aerodrome Forecast
Issued by NWS Charleston, WV

Current Version | Previous Version | Graphics & Text | Print | Product List | Glossary On
Versions: 1 2 3 4 5 6 7 8 9 10 11 12 13 14 15 16 17 18 19 20 21 22 23 24 25 26
122
FTUS41 KRLX 031744
TAFBKW
TAF
KBKW 031744Z 0318/0418 29007KT P6SM -SHRA BKN015
      TEMPO 0318/0320 5SM -SHRA BKN010
     FM032100 31008KT P6SM BKN025
     FM032300 32007KT P6SM BKN035
     FM040400 VRB03KT P6SM BKN010
     FM040500 VRB03KT 4SM BR BKN008
     FM040900 00000KT 3SM BR BKN003
     FM041400 26005KT P6SM BKN025
     FM041600 27006KT P6SM BKN035=

USA.gov is the U.S. government's official web portal to all federal, state and local government web resources and services.